createdAt,value
2023-01-09T00:04:35.652Z,99130.51
2023-01-09T00:09:38.325Z,99145.66
2023-01-09T00:14:41.039Z,99152.91
2023-01-09T00:19:43.895Z,99160.31
2023-01-09T00:24:46.597Z,99162.60
2023-01-09T00:29:49.756Z,99171.92
2023-01-09T00:34:53.673Z,99139.16
2023-01-09T00:39:56.477Z,99113.09
2023-01-09T00:45:03.260Z,99116.02
2023-01-09T00:50:11.385Z,99129.55
2023-01-09T00:55:15.430Z,99139.00
2023-01-09T01:00:19.130Z,99142.27
2023-01-09T01:05:40.490Z,99134.67
2023-01-09T01:10:44.921Z,99141.49
2023-01-09T01:15:47.729Z,99122.68
2023-01-09T01:20:50.428Z,99118.84
2023-01-09T01:25:53.187Z,99113.23
2023-01-09T01:30:55.989Z,99109.46
2023-01-09T01:36:05.063Z,99135.60
2023-01-09T01:41:07.774Z,99140.39
2023-01-09T01:46:10.512Z,99128.26
2023-01-09T01:51:16.558Z,99129.41
2023-01-09T01:56:35.584Z,99118.23
2023-01-09T02:01:42.591Z,99111.20
2023-01-09T02:06:48.537Z,99110.16
2023-01-09T02:11:57.266Z,99119.89
2023-01-09T02:17:28.007Z,99118.83
2023-01-09T02:23:05.184Z,99122.43
2023-01-09T02:28:40.180Z,99114.42
2023-01-09T02:33:55.047Z,99117.46
2023-01-09T02:39:08.515Z,99117.14
2023-01-09T02:44:22.601Z,99122.48
2023-01-09T02:49:25.706Z,99127.80
2023-01-09T02:54:43.405Z,99122.70
2023-01-09T03:00:13.696Z,99114.73
2023-01-09T03:05:23.132Z,99115.21
2023-01-09T03:10:37.996Z,99104.77
2023-01-09T03:15:44.520Z,99103.05
2023-01-09T03:20:48.589Z,99090.48
2023-01-09T03:25:51.351Z,99085.21
2023-01-09T03:30:54.152Z,99089.98
2023-01-09T03:35:56.832Z,99087.59
2023-01-09T03:40:59.659Z,99081.84
2023-01-09T03:46:03.508Z,99085.02
2023-01-09T03:51:06.422Z,99068.80
2023-01-09T03:56:09.188Z,99066.16
2023-01-09T04:01:12.959Z,99054.69
2023-01-09T04:06:15.916Z,99046.05
2023-01-09T04:11:18.719Z,99046.75
2023-01-09T04:16:21.591Z,99048.43
2023-01-09T04:21:24.423Z,99045.85
2023-01-09T04:26:27.224Z,99037.28
2023-01-09T04:31:30.021Z,99032.64
2023-01-09T04:36:34.878Z,99021.61
2023-01-09T04:41:49.876Z,99013.48
2023-01-09T04:46:54.113Z,99007.49
2023-01-09T04:51:57.293Z,99006.09
2023-01-09T04:57:00.128Z,99013.59
2023-01-09T05:02:03.530Z,99016.79
2023-01-09T05:07:06.598Z,99020.24
2023-01-09T05:12:09.784Z,99017.59
2023-01-09T05:17:12.443Z,99018.91
2023-01-09T05:22:15.262Z,99020.25
2023-01-09T05:27:18.251Z,99005.33
2023-01-09T05:32:21.055Z,99003.52
2023-01-09T05:37:23.845Z,99000.10
2023-01-09T05:42:26.657Z,98995.16
2023-01-09T05:47:29.459Z,98977.77
2023-01-09T05:52:32.375Z,98976.73
2023-01-09T05:57:35.169Z,98971.05
2023-01-09T06:02:38.040Z,98966.33
2023-01-09T06:07:42.110Z,98963.05
2023-01-09T06:12:51.841Z,98970.52
2023-01-09T06:17:54.651Z,98967.94
2023-01-09T06:22:57.574Z,98957.40
2023-01-09T06:28:00.313Z,98950.95
2023-01-09T06:33:03.276Z,98949.65
2023-01-09T06:38:06.315Z,98953.52
2023-01-09T06:43:09.184Z,98954.09
2023-01-09T06:48:12.460Z,98953.18
2023-01-09T06:53:15.408Z,98956.08
2023-01-09T06:58:18.614Z,98959.69
2023-01-09T07:03:22.805Z,98961.00
2023-01-09T07:08:25.662Z,98965.30
2023-01-09T07:13:28.387Z,98968.56
2023-01-09T07:18:31.663Z,98968.83
2023-01-09T07:23:35.181Z,98970.20
2023-01-09T07:28:37.861Z,98967.20
2023-01-09T07:33:41.061Z,98964.20
2023-01-09T07:38:43.746Z,98958.58
2023-01-09T07:43:46.449Z,98954.42
2023-01-09T07:48:49.190Z,98959.75
2023-01-09T07:53:51.991Z,98956.50
2023-01-09T07:58:54.820Z,98951.13
2023-01-09T08:03:57.699Z,98954.52
2023-01-09T08:09:00.810Z,98956.59
2023-01-09T08:14:04.022Z,98953.64
2023-01-09T08:19:06.809Z,98949.27
2023-01-09T08:24:10.137Z,98937.88
2023-01-09T08:29:13.074Z,98931.77
2023-01-09T08:34:15.835Z,98927.83
2023-01-09T08:39:18.617Z,98926.24
2023-01-09T08:44:40.630Z,98921.00
2023-01-09T08:49:43.432Z,98912.61
2023-01-09T08:54:46.194Z,98897.76
2023-01-09T08:59:48.945Z,98908.10
2023-01-09T09:04:56.154Z,98912.06
2023-01-09T09:09:58.811Z,98908.48
2023-01-09T09:15:20.339Z,98901.89
2023-01-09T09:20:25.303Z,98901.88
2023-01-09T09:25:28.974Z,98899.00
2023-01-09T09:30:31.812Z,98897.90
2023-01-09T09:35:34.884Z,98887.97
2023-01-09T09:41:28.942Z,98881.84
2023-01-09T09:46:50.984Z,98873.10
2023-01-09T09:52:18.961Z,98868.50
2023-01-09T09:57:29.632Z,98866.90
2023-01-09T10:02:54.242Z,98860.98
2023-01-09T10:08:14.929Z,98851.77
2023-01-09T10:13:38.866Z,98848.15
2023-01-09T10:18:54.515Z,98838.67
2023-01-09T10:24:32.982Z,98833.69
2023-01-09T10:29:55.990Z,98826.33
2023-01-09T10:35:08.144Z,98826.17
2023-01-09T10:40:29.155Z,98820.54
2023-01-09T10:45:39.936Z,98829.48
2023-01-09T10:50:46.004Z,98827.89
2023-01-09T10:55:54.491Z,98820.16
2023-01-09T11:01:00.440Z,98814.77
2023-01-09T11:06:03.850Z,98815.69
2023-01-09T11:11:06.760Z,98803.83
2023-01-09T11:16:24.033Z,98798.84
2023-01-09T11:21:32.598Z,98789.48
2023-01-09T11:26:35.638Z,98787.95
2023-01-09T11:31:40.055Z,98784.63
2023-01-09T11:36:43.536Z,98783.85
2023-01-09T11:41:48.317Z,98774.48
2023-01-09T11:46:52.495Z,98771.39
2023-01-09T11:52:21.049Z,98772.40
2023-01-09T11:57:26.152Z,98771.05
2023-01-09T12:02:53.225Z,98767.55
2023-01-09T12:08:11.170Z,98768.27
2023-01-09T12:13:26.015Z,98765.66
2023-01-09T12:19:04.191Z,98759.98
2023-01-09T12:24:49.493Z,98753.42
2023-01-09T12:30:01.409Z,98752.60
2023-01-09T12:35:30.205Z,98750.51
2023-01-09T12:40:40.813Z,98751.06
2023-01-09T12:45:59.407Z,98741.77
2023-01-09T12:51:21.013Z,98735.65
2023-01-09T12:56:29.651Z,98729.47
2023-01-09T13:01:44.221Z,98720.64
2023-01-09T13:06:59.713Z,98716.86
2023-01-09T13:12:12.563Z,98716.97
2023-01-09T13:17:33.232Z,98719.14
2023-01-09T13:22:36.402Z,98717.52
2023-01-09T13:27:41.456Z,98708.92
2023-01-09T13:32:44.258Z,98704.21
2023-01-09T13:37:52.675Z,98701.88
2023-01-09T13:43:03.402Z,98696.23
2023-01-09T13:48:09.864Z,98687.57
2023-01-09T13:53:18.634Z,98681.48
2023-01-09T13:58:22.929Z,98680.09
2023-01-09T14:03:33.514Z,98681.79
2023-01-09T14:08:36.679Z,98680.03
2023-01-09T14:13:44.466Z,98684.41
2023-01-09T14:18:53.661Z,98686.77
2023-01-09T14:24:07.095Z,98687.64
2023-01-09T14:29:28.380Z,98688.98
2023-01-09T14:34:37.431Z,98689.05
2023-01-09T14:39:45.336Z,98686.06
2023-01-09T14:45:06.543Z,98683.70
2023-01-09T14:50:45.459Z,98684.39
2023-01-09T14:55:57.831Z,98691.92
2023-01-09T15:01:03.391Z,98688.80
2023-01-09T15:06:10.654Z,98694.06
2023-01-09T15:11:14.187Z,98696.23
2023-01-09T15:16:20.679Z,98693.79
2023-01-09T15:21:31.047Z,98692.84
2023-01-09T15:26:33.891Z,98697.38
2023-01-09T15:31:39.027Z,98696.80
2023-01-09T15:36:41.954Z,98698.02
2023-01-09T15:42:05.987Z,98698.92
2023-01-09T15:47:15.663Z,98709.09
2023-01-09T15:52:19.405Z,98714.95
2023-01-09T15:57:24.966Z,98713.95
2023-01-09T16:02:46.275Z,98703.79
2023-01-09T16:07:51.753Z,98706.67
2023-01-09T16:12:54.952Z,98700.10
2023-01-09T16:18:14.042Z,98696.89
2023-01-09T16:23:30.872Z,98699.84
2023-01-09T16:28:33.752Z,98711.86
2023-01-09T16:33:45.799Z,98717.21
2023-01-09T16:38:48.838Z,98714.09
2023-01-09T16:43:52.244Z,98714.22
2023-01-09T16:48:55.239Z,98718.67
2023-01-09T16:53:57.956Z,98715.53
2023-01-09T16:59:00.603Z,98716.67
2023-01-09T17:04:10.898Z,98717.06
2023-01-09T17:09:16.376Z,98716.33
2023-01-09T17:14:19.141Z,98726.22
2023-01-09T17:19:25.626Z,98734.68
2023-01-09T17:24:46.965Z,98742.69
2023-01-09T17:29:49.708Z,98742.56
2023-01-09T17:34:52.409Z,98731.73
2023-01-09T17:40:01.130Z,98723.89
2023-01-09T17:45:04.707Z,98730.89
2023-01-09T17:50:17.650Z,98739.16
2023-01-09T17:55:20.379Z,98751.31
2023-01-09T18:00:27.749Z,98752.95
2023-01-09T18:05:30.923Z,98751.79
2023-01-09T18:10:33.702Z,98747.82
2023-01-09T18:15:37.147Z,98747.05
2023-01-09T18:20:40.786Z,98748.16
2023-01-09T18:25:44.205Z,98746.74
2023-01-09T18:30:50.379Z,98742.43
2023-01-09T18:35:53.124Z,98737.73
2023-01-09T18:41:00.043Z,98744.72
2023-01-09T18:46:09.641Z,98751.98
2023-01-09T18:51:12.404Z,98758.55
2023-01-09T18:56:15.722Z,98752.49
2023-01-09T19:01:19.672Z,98754.23
2023-01-09T19:06:23.050Z,98753.55
2023-01-09T19:11:26.072Z,98757.98
2023-01-09T19:16:28.980Z,98760.13
2023-01-09T19:21:32.430Z,98764.49
2023-01-09T19:26:35.198Z,98759.35
2023-01-09T19:31:38.098Z,98766.70
2023-01-09T19:36:40.911Z,98760.73
2023-01-09T19:41:44.416Z,98755.41
2023-01-09T19:46:47.215Z,98752.25
2023-01-09T19:51:51.759Z,98755.33
2023-01-09T19:56:54.564Z,98776.95
2023-01-09T20:01:58.254Z,98780.09
2023-01-09T20:07:01.248Z,98792.85
2023-01-09T20:12:05.446Z,98807.88
2023-01-09T20:17:08.160Z,98813.39
2023-01-09T20:22:11.653Z,98823.45
2023-01-09T20:27:14.444Z,98837.73
2023-01-09T20:32:17.192Z,98849.50
2023-01-09T20:37:19.948Z,98861.65
2023-01-09T20:42:22.635Z,98880.36
2023-01-09T20:47:26.361Z,98900.03
2023-01-09T20:52:29.092Z,98914.38
2023-01-09T20:57:32.179Z,98916.10
2023-01-09T21:02:34.972Z,98910.61
2023-01-09T21:07:37.795Z,98907.10
2023-01-09T21:12:40.601Z,98902.38
2023-01-09T21:17:43.928Z,98910.52
2023-01-09T21:22:46.683Z,98917.94
2023-01-09T21:27:51.151Z,98922.65
2023-01-09T21:32:53.938Z,98935.19
2023-01-09T21:37:58.098Z,98946.16
2023-01-09T21:43:19.512Z,98952.68
2023-01-09T21:48:24.553Z,98959.20
2023-01-09T21:53:27.260Z,98966.33
2023-01-09T21:58:29.958Z,98976.06
2023-01-09T22:03:32.703Z,98986.16
2023-01-09T22:08:35.771Z,98986.02
2023-01-09T22:13:38.574Z,98994.55
2023-01-09T22:18:41.513Z,98997.60
2023-01-09T22:23:44.198Z,99003.63
2023-01-09T22:28:48.921Z,99015.30
2023-01-09T22:33:53.368Z,99022.00
2023-01-09T22:38:57.905Z,99033.19
2023-01-09T22:44:00.911Z,99037.77
2023-01-09T22:49:04.352Z,99040.27
2023-01-09T22:54:07.124Z,99049.58
2023-01-09T22:59:09.922Z,99055.88
2023-01-09T23:04:13.988Z,99054.42
2023-01-09T23:09:16.866Z,99056.95
2023-01-09T23:14:21.616Z,99065.35
2023-01-09T23:19:24.364Z,99076.92
2023-01-09T23:24:28.343Z,99085.48
2023-01-09T23:29:31.137Z,99095.10
2023-01-09T23:34:33.939Z,99107.41
2023-01-09T23:39:36.850Z,99109.77
2023-01-09T23:44:39.646Z,99116.02
2023-01-09T23:49:42.467Z,99116.48
2023-01-09T23:54:45.478Z,99121.83
2023-01-09T23:59:48.362Z,99130.06
